sensor_id;sensor_type;location;lat;lon;timestamp;P1;durP1;ratioP1;P2;durP2;ratioP2
18142;SDS011;9197;50.930;3.140;2023-01-10T00:00:24;13.40;;;3.33;;
18142;SDS011;9197;50.930;3.140;2023-01-10T00:02:51;13.33;;;2.87;;
18142;SDS011;9197;50.930;3.140;2023-01-10T00:05:19;12.60;;;2.90;;
18142;SDS011;9197;50.930;3.140;2023-01-10T00:07:46;11.53;;;3.40;;
18142;SDS011;9197;50.930;3.140;2023-01-10T00:10:15;15.87;;;3.80;;
18142;SDS011;9197;50.930;3.140;2023-01-10T00:12:43;14.17;;;4.03;;
18142;SDS011;9197;50.930;3.140;2023-01-10T00:15:30;7.67;;;3.23;;
18142;SDS011;9197;50.930;3.140;2023-01-10T00:17:58;14.90;;;2.73;;
18142;SDS011;9197;50.930;3.140;2023-01-10T00:20:26;10.63;;;3.10;;
18142;SDS011;9197;50.930;3.140;2023-01-10T00:22:53;13.60;;;3.60;;
18142;SDS011;9197;50.930;3.140;2023-01-10T00:25:23;16.73;;;3.73;;
18142;SDS011;9197;50.930;3.140;2023-01-10T00:27:51;13.10;;;3.27;;
18142;SDS011;9197;50.930;3.140;2023-01-10T00:30:26;11.07;;;2.87;;
18142;SDS011;9197;50.930;3.140;2023-01-10T00:32:53;11.00;;;3.13;;
18142;SDS011;9197;50.930;3.140;2023-01-10T00:35:21;13.47;;;2.93;;
18142;SDS011;9197;50.930;3.140;2023-01-10T00:37:48;18.40;;;3.90;;
18142;SDS011;9197;50.930;3.140;2023-01-10T00:40:23;15.00;;;2.87;;
18142;SDS011;9197;50.930;3.140;2023-01-10T00:42:50;18.13;;;3.47;;
18142;SDS011;9197;50.930;3.140;2023-01-10T00:45:35;11.07;;;3.10;;
18142;SDS011;9197;50.930;3.140;2023-01-10T00:48:03;16.30;;;3.43;;
18142;SDS011;9197;50.930;3.140;2023-01-10T00:50:30;14.77;;;3.07;;
18142;SDS011;9197;50.930;3.140;2023-01-10T00:52:58;14.30;;;4.10;;
18142;SDS011;9197;50.930;3.140;2023-01-10T00:55:27;14.93;;;3.77;;
18142;SDS011;9197;50.930;3.140;2023-01-10T00:57:54;13.60;;;3.90;;
18142;SDS011;9197;50.930;3.140;2023-01-10T01:00:22;21.53;;;4.53;;
18142;SDS011;9197;50.930;3.140;2023-01-10T01:02:49;18.70;;;4.73;;
18142;SDS011;9197;50.930;3.140;2023-01-10T01:05:17;12.87;;;3.60;;
18142;SDS011;9197;50.930;3.140;2023-01-10T01:07:46;13.77;;;3.60;;
18142;SDS011;9197;50.930;3.140;2023-01-10T01:10:14;17.57;;;5.17;;
18142;SDS011;9197;50.930;3.140;2023-01-10T01:13:06;16.93;;;4.47;;
18142;SDS011;9197;50.930;3.140;2023-01-10T01:15:35;17.63;;;3.70;;
18142;SDS011;9197;50.930;3.140;2023-01-10T01:18:05;18.20;;;3.97;;
18142;SDS011;9197;50.930;3.140;2023-01-10T01:20:32;13.90;;;3.67;;
18142;SDS011;9197;50.930;3.140;2023-01-10T01:23:00;10.77;;;3.83;;
18142;SDS011;9197;50.930;3.140;2023-01-10T01:25:27;12.10;;;4.43;;
18142;SDS011;9197;50.930;3.140;2023-01-10T01:27:55;16.60;;;4.03;;
18142;SDS011;9197;50.930;3.140;2023-01-10T01:30:24;20.63;;;4.37;;
18142;SDS011;9197;50.930;3.140;2023-01-10T01:32:51;21.90;;;4.47;;
18142;SDS011;9197;50.930;3.140;2023-01-10T01:35:19;14.70;;;3.73;;
18142;SDS011;9197;50.930;3.140;2023-01-10T01:37:46;19.53;;;4.13;;
18142;SDS011;9197;50.930;3.140;2023-01-10T01:40:14;16.20;;;4.20;;
18142;SDS011;9197;50.930;3.140;2023-01-10T01:42:42;11.60;;;3.23;;
18142;SDS011;9197;50.930;3.140;2023-01-10T01:47:58;14.93;;;3.47;;
18142;SDS011;9197;50.930;3.140;2023-01-10T01:50:31;14.17;;;3.27;;
18142;SDS011;9197;50.930;3.140;2023-01-10T01:53:01;25.37;;;5.17;;
18142;SDS011;9197;50.930;3.140;2023-01-10T01:55:29;21.10;;;5.53;;
18142;SDS011;9197;50.930;3.140;2023-01-10T01:57:59;14.03;;;3.30;;
18142;SDS011;9197;50.930;3.140;2023-01-10T02:00:27;16.30;;;4.40;;
18142;SDS011;9197;50.930;3.140;2023-01-10T02:02:55;17.33;;;3.50;;
18142;SDS011;9197;50.930;3.140;2023-01-10T02:05:26;14.87;;;4.17;;
18142;SDS011;9197;50.930;3.140;2023-01-10T02:07:54;20.40;;;3.80;;
18142;SDS011;9197;50.930;3.140;2023-01-10T02:10:23;15.87;;;3.80;;
18142;SDS011;9197;50.930;3.140;2023-01-10T02:12:53;15.53;;;3.47;;
18142;SDS011;9197;50.930;3.140;2023-01-10T02:15:22;24.57;;;4.47;;
18142;SDS011;9197;50.930;3.140;2023-01-10T02:17:49;19.63;;;3.43;;
18142;SDS011;9197;50.930;3.140;2023-01-10T02:20:20;21.50;;;5.07;;
18142;SDS011;9197;50.930;3.140;2023-01-10T02:28:25;23.17;;;4.30;;
18142;SDS011;9197;50.930;3.140;2023-01-10T02:31:08;13.20;;;3.90;;
18142;SDS011;9197;50.930;3.140;2023-01-10T02:33:42;20.80;;;4.43;;
18142;SDS011;9197;50.930;3.140;2023-01-10T02:36:14;18.00;;;4.40;;
18142;SDS011;9197;50.930;3.140;2023-01-10T02:38:51;22.60;;;4.03;;
18142;SDS011;9197;50.930;3.140;2023-01-10T02:41:25;21.67;;;4.17;;
18142;SDS011;9197;50.930;3.140;2023-01-10T02:43:56;15.33;;;3.83;;
18142;SDS011;9197;50.930;3.140;2023-01-10T02:46:25;20.63;;;3.60;;
18142;SDS011;9197;50.930;3.140;2023-01-10T02:48:55;20.60;;;3.43;;
18142;SDS011;9197;50.930;3.140;2023-01-10T02:51:23;16.60;;;4.37;;
18142;SDS011;9197;50.930;3.140;2023-01-10T02:53:52;20.53;;;5.03;;
18142;SDS011;9197;50.930;3.140;2023-01-10T02:56:45;16.60;;;4.60;;
18142;SDS011;9197;50.930;3.140;2023-01-10T02:59:29;18.97;;;4.13;;
18142;SDS011;9197;50.930;3.140;2023-01-10T03:02:00;17.27;;;3.60;;
18142;SDS011;9197;50.930;3.140;2023-01-10T03:04:32;16.67;;;4.77;;
18142;SDS011;9197;50.930;3.140;2023-01-10T03:07:03;20.93;;;5.00;;
18142;SDS011;9197;50.930;3.140;2023-01-10T03:09:35;18.40;;;4.07;;
18142;SDS011;9197;50.930;3.140;2023-01-10T03:12:06;19.00;;;4.03;;
18142;SDS011;9197;50.930;3.140;2023-01-10T03:14:36;17.43;;;4.07;;
18142;SDS011;9197;50.930;3.140;2023-01-10T03:17:05;18.03;;;4.73;;
18142;SDS011;9197;50.930;3.140;2023-01-10T03:19:36;21.93;;;3.60;;
18142;SDS011;9197;50.930;3.140;2023-01-10T03:22:05;22.50;;;4.13;;
18142;SDS011;9197;50.930;3.140;2023-01-10T03:24:35;27.57;;;5.30;;
18142;SDS011;9197;50.930;3.140;2023-01-10T03:27:05;19.77;;;5.07;;
18142;SDS011;9197;50.930;3.140;2023-01-10T03:29:35;17.47;;;3.87;;
18142;SDS011;9197;50.930;3.140;2023-01-10T03:32:05;21.67;;;4.00;;
18142;SDS011;9197;50.930;3.140;2023-01-10T03:34:33;22.73;;;4.73;;
18142;SDS011;9197;50.930;3.140;2023-01-10T03:37:03;20.13;;;4.90;;
18142;SDS011;9197;50.930;3.140;2023-01-10T03:39:38;18.27;;;4.07;;
18142;SDS011;9197;50.930;3.140;2023-01-10T03:42:07;19.50;;;3.57;;
18142;SDS011;9197;50.930;3.140;2023-01-10T03:44:39;10.43;;;2.83;;
18142;SDS011;9197;50.930;3.140;2023-01-10T03:47:12;24.83;;;4.27;;
18142;SDS011;9197;50.930;3.140;2023-01-10T03:49:40;17.87;;;4.00;;
18142;SDS011;9197;50.930;3.140;2023-01-10T03:52:11;19.30;;;4.37;;
18142;SDS011;9197;50.930;3.140;2023-01-10T03:54:41;20.10;;;5.00;;
18142;SDS011;9197;50.930;3.140;2023-01-10T03:57:13;22.27;;;4.63;;
18142;SDS011;9197;50.930;3.140;2023-01-10T03:59:41;17.17;;;3.83;;
18142;SDS011;9197;50.930;3.140;2023-01-10T04:02:09;19.93;;;3.67;;
18142;SDS011;9197;50.930;3.140;2023-01-10T04:04:37;21.63;;;4.57;;
18142;SDS011;9197;50.930;3.140;2023-01-10T04:07:04;22.70;;;4.70;;
18142;SDS011;9197;50.930;3.140;2023-01-10T04:09:33;15.63;;;3.37;;
18142;SDS011;9197;50.930;3.140;2023-01-10T04:12:00;22.20;;;5.03;;
18142;SDS011;9197;50.930;3.140;2023-01-10T04:14:28;25.80;;;4.50;;
18142;SDS011;9197;50.930;3.140;2023-01-10T04:16:57;19.17;;;4.17;;
18142;SDS011;9197;50.930;3.140;2023-01-10T04:19:25;13.47;;;4.00;;
18142;SDS011;9197;50.930;3.140;2023-01-10T04:21:52;17.73;;;3.47;;
18142;SDS011;9197;50.930;3.140;2023-01-10T04:24:20;16.23;;;4.43;;
18142;SDS011;9197;50.930;3.140;2023-01-10T04:26:49;19.43;;;4.33;;
18142;SDS011;9197;50.930;3.140;2023-01-10T04:29:16;18.17;;;4.40;;
18142;SDS011;9197;50.930;3.140;2023-01-10T04:31:44;15.67;;;3.40;;
18142;SDS011;9197;50.930;3.140;2023-01-10T04:34:11;14.73;;;3.63;;
18142;SDS011;9197;50.930;3.140;2023-01-10T04:36:39;22.07;;;4.47;;
18142;SDS011;9197;50.930;3.140;2023-01-10T04:39:09;16.83;;;3.87;;
18142;SDS011;9197;50.930;3.140;2023-01-10T04:41:36;17.30;;;3.33;;
18142;SDS011;9197;50.930;3.140;2023-01-10T04:44:06;20.10;;;4.70;;
18142;SDS011;9197;50.930;3.140;2023-01-10T04:46:34;20.30;;;3.43;;
18142;SDS011;9197;50.930;3.140;2023-01-10T04:49:01;16.50;;;4.13;;
18142;SDS011;9197;50.930;3.140;2023-01-10T04:51:29;18.10;;;4.13;;
18142;SDS011;9197;50.930;3.140;2023-01-10T04:53:56;22.43;;;5.50;;
18142;SDS011;9197;50.930;3.140;2023-01-10T04:56:24;11.80;;;3.60;;
18142;SDS011;9197;50.930;3.140;2023-01-10T04:58:51;17.90;;;4.07;;
18142;SDS011;9197;50.930;3.140;2023-01-10T05:01:21;17.60;;;4.30;;
18142;SDS011;9197;50.930;3.140;2023-01-10T05:03:49;14.43;;;3.70;;
18142;SDS011;9197;50.930;3.140;2023-01-10T05:06:17;18.30;;;4.40;;
18142;SDS011;9197;50.930;3.140;2023-01-10T05:08:45;13.30;;;3.63;;
18142;SDS011;9197;50.930;3.140;2023-01-10T05:11:12;23.13;;;4.70;;
18142;SDS011;9197;50.930;3.140;2023-01-10T05:13:40;17.13;;;4.73;;
18142;SDS011;9197;50.930;3.140;2023-01-10T05:16:07;26.30;;;4.17;;
18142;SDS011;9197;50.930;3.140;2023-01-10T05:18:36;25.17;;;4.83;;
18142;SDS011;9197;50.930;3.140;2023-01-10T05:21:04;12.00;;;3.90;;
18142;SDS011;9197;50.930;3.140;2023-01-10T05:23:32;22.90;;;4.10;;
18142;SDS011;9197;50.930;3.140;2023-01-10T05:26:04;20.57;;;4.40;;
18142;SDS011;9197;50.930;3.140;2023-01-10T05:28:32;19.27;;;4.40;;
18142;SDS011;9197;50.930;3.140;2023-01-10T05:30:59;27.17;;;4.10;;
18142;SDS011;9197;50.930;3.140;2023-01-10T05:33:27;18.13;;;4.13;;
18142;SDS011;9197;50.930;3.140;2023-01-10T05:35:56;17.97;;;4.77;;
18142;SDS011;9197;50.930;3.140;2023-01-10T05:38:23;21.03;;;4.27;;
18142;SDS011;9197;50.930;3.140;2023-01-10T05:40:53;17.97;;;3.97;;
18142;SDS011;9197;50.930;3.140;2023-01-10T05:43:21;26.73;;;5.00;;
18142;SDS011;9197;50.930;3.140;2023-01-10T05:45:49;17.50;;;4.17;;
18142;SDS011;9197;50.930;3.140;2023-01-10T05:48:16;17.23;;;4.20;;
18142;SDS011;9197;50.930;3.140;2023-01-10T05:50:45;23.93;;;3.97;;
18142;SDS011;9197;50.930;3.140;2023-01-10T05:53:13;20.77;;;4.87;;
18142;SDS011;9197;50.930;3.140;2023-01-10T05:55:41;15.03;;;3.67;;
18142;SDS011;9197;50.930;3.140;2023-01-10T05:58:09;22.53;;;4.17;;
18142;SDS011;9197;50.930;3.140;2023-01-10T06:00:37;18.97;;;3.73;;
18142;SDS011;9197;50.930;3.140;2023-01-10T06:03:05;25.03;;;5.33;;
18142;SDS011;9197;50.930;3.140;2023-01-10T06:05:32;19.23;;;4.83;;
18142;SDS011;9197;50.930;3.140;2023-01-10T06:08:00;26.13;;;4.70;;
18142;SDS011;9197;50.930;3.140;2023-01-10T06:10:29;17.40;;;4.83;;
18142;SDS011;9197;50.930;3.140;2023-01-10T06:12:56;14.47;;;3.57;;
18142;SDS011;9197;50.930;3.140;2023-01-10T06:15:24;21.43;;;5.33;;
18142;SDS011;9197;50.930;3.140;2023-01-10T06:17:52;20.27;;;4.10;;
18142;SDS011;9197;50.930;3.140;2023-01-10T06:20:19;19.23;;;4.00;;
18142;SDS011;9197;50.930;3.140;2023-01-10T06:22:47;20.10;;;5.47;;
18142;SDS011;9197;50.930;3.140;2023-01-10T06:25:14;22.27;;;4.60;;
18142;SDS011;9197;50.930;3.140;2023-01-10T06:27:43;16.27;;;5.70;;
18142;SDS011;9197;50.930;3.140;2023-01-10T06:30:11;18.27;;;4.23;;
18142;SDS011;9197;50.930;3.140;2023-01-10T06:32:39;24.90;;;5.30;;
18142;SDS011;9197;50.930;3.140;2023-01-10T06:35:08;23.37;;;4.47;;
18142;SDS011;9197;50.930;3.140;2023-01-10T06:37:35;14.90;;;4.03;;
18142;SDS011;9197;50.930;3.140;2023-01-10T06:40:03;17.27;;;4.27;;
18142;SDS011;9197;50.930;3.140;2023-01-10T06:42:31;16.83;;;3.83;;
18142;SDS011;9197;50.930;3.140;2023-01-10T06:44:59;14.37;;;3.97;;
18142;SDS011;9197;50.930;3.140;2023-01-10T06:47:27;22.20;;;4.47;;
18142;SDS011;9197;50.930;3.140;2023-01-10T06:49:54;14.73;;;4.40;;
18142;SDS011;9197;50.930;3.140;2023-01-10T06:52:22;16.00;;;4.37;;
18142;SDS011;9197;50.930;3.140;2023-01-10T06:54:49;19.37;;;5.13;;
18142;SDS011;9197;50.930;3.140;2023-01-10T06:57:17;30.80;;;5.90;;
18142;SDS011;9197;50.930;3.140;2023-01-10T06:59:45;25.63;;;5.17;;
18142;SDS011;9197;50.930;3.140;2023-01-10T07:02:14;14.10;;;5.23;;
18142;SDS011;9197;50.930;3.140;2023-01-10T07:04:41;19.70;;;5.63;;
18142;SDS011;9197;50.930;3.140;2023-01-10T07:07:09;27.30;;;5.73;;
18142;SDS011;9197;50.930;3.140;2023-01-10T07:09:36;20.57;;;5.30;;
18142;SDS011;9197;50.930;3.140;2023-01-10T07:12:04;20.80;;;4.80;;
18142;SDS011;9197;50.930;3.140;2023-01-10T07:14:32;26.90;;;5.17;;
18142;SDS011;9197;50.930;3.140;2023-01-10T07:16:59;15.10;;;4.57;;
18142;SDS011;9197;50.930;3.140;2023-01-10T07:19:28;22.83;;;5.27;;
18142;SDS011;9197;50.930;3.140;2023-01-10T07:21:56;23.80;;;4.77;;
18142;SDS011;9197;50.930;3.140;2023-01-10T07:24:23;13.87;;;5.17;;
18142;SDS011;9197;50.930;3.140;2023-01-10T07:26:53;20.40;;;4.90;;
18142;SDS011;9197;50.930;3.140;2023-01-10T07:29:20;17.97;;;5.73;;
18142;SDS011;9197;50.930;3.140;2023-01-10T07:31:48;16.77;;;5.20;;
18142;SDS011;9197;50.930;3.140;2023-01-10T07:34:15;23.63;;;5.40;;
18142;SDS011;9197;50.930;3.140;2023-01-10T07:36:44;18.73;;;5.90;;
18142;SDS011;9197;50.930;3.140;2023-01-10T07:39:12;20.07;;;4.87;;
18142;SDS011;9197;50.930;3.140;2023-01-10T07:41:39;20.87;;;5.27;;
18142;SDS011;9197;50.930;3.140;2023-01-10T07:44:07;19.83;;;4.40;;
18142;SDS011;9197;50.930;3.140;2023-01-10T07:46:34;15.67;;;4.00;;
18142;SDS011;9197;50.930;3.140;2023-01-10T07:49:02;17.17;;;4.07;;
18142;SDS011;9197;50.930;3.140;2023-01-10T07:51:30;19.03;;;4.27;;
18142;SDS011;9197;50.930;3.140;2023-01-10T07:53:58;16.33;;;3.67;;
18142;SDS011;9197;50.930;3.140;2023-01-10T07:56:26;18.90;;;4.53;;
18142;SDS011;9197;50.930;3.140;2023-01-10T07:58:54;13.50;;;3.73;;
18142;SDS011;9197;50.930;3.140;2023-01-10T08:01:21;20.10;;;4.53;;
18142;SDS011;9197;50.930;3.140;2023-01-10T08:03:50;13.63;;;3.70;;
18142;SDS011;9197;50.930;3.140;2023-01-10T08:06:17;18.17;;;5.07;;
18142;SDS011;9197;50.930;3.140;2023-01-10T08:08:45;13.90;;;4.13;;
18142;SDS011;9197;50.930;3.140;2023-01-10T08:11:13;19.77;;;5.20;;
18142;SDS011;9197;50.930;3.140;2023-01-10T08:13:41;20.13;;;5.73;;
18142;SDS011;9197;50.930;3.140;2023-01-10T08:16:08;18.80;;;5.87;;
18142;SDS011;9197;50.930;3.140;2023-01-10T08:18:36;21.77;;;6.20;;
18142;SDS011;9197;50.930;3.140;2023-01-10T08:21:06;18.10;;;5.33;;
18142;SDS011;9197;50.930;3.140;2023-01-10T08:23:33;15.30;;;5.00;;
18142;SDS011;9197;50.930;3.140;2023-01-10T08:26:01;15.40;;;5.97;;
18142;SDS011;9197;50.930;3.140;2023-01-10T08:28:31;17.40;;;6.03;;
18142;SDS011;9197;50.930;3.140;2023-01-10T08:31:03;20.07;;;5.07;;
18142;SDS011;9197;50.930;3.140;2023-01-10T08:33:30;18.27;;;4.53;;
18142;SDS011;9197;50.930;3.140;2023-01-10T08:35:58;19.27;;;4.90;;
18142;SDS011;9197;50.930;3.140;2023-01-10T08:38:25;15.53;;;3.73;;
18142;SDS011;9197;50.930;3.140;2023-01-10T08:40:54;25.20;;;4.37;;
18142;SDS011;9197;50.930;3.140;2023-01-10T08:43:22;19.70;;;4.57;;
18142;SDS011;9197;50.930;3.140;2023-01-10T08:45:51;19.53;;;3.73;;
18142;SDS011;9197;50.930;3.140;2023-01-10T08:48:18;17.83;;;5.77;;
18142;SDS011;9197;50.930;3.140;2023-01-10T08:50:46;15.27;;;4.53;;
18142;SDS011;9197;50.930;3.140;2023-01-10T08:53:13;15.70;;;4.40;;
18142;SDS011;9197;50.930;3.140;2023-01-10T08:55:41;15.77;;;5.20;;
18142;SDS011;9197;50.930;3.140;2023-01-10T08:58:08;22.20;;;5.57;;
18142;SDS011;9197;50.930;3.140;2023-01-10T09:00:36;18.63;;;4.40;;
18142;SDS011;9197;50.930;3.140;2023-01-10T09:03:06;15.60;;;4.30;;
18142;SDS011;9197;50.930;3.140;2023-01-10T09:05:33;15.90;;;4.80;;
18142;SDS011;9197;50.930;3.140;2023-01-10T09:08:01;19.67;;;5.57;;
18142;SDS011;9197;50.930;3.140;2023-01-10T09:10:29;18.50;;;4.57;;
18142;SDS011;9197;50.930;3.140;2023-01-10T09:12:56;15.03;;;5.10;;
18142;SDS011;9197;50.930;3.140;2023-01-10T09:15:26;13.13;;;5.37;;
18142;SDS011;9197;50.930;3.140;2023-01-10T09:17:54;15.27;;;5.40;;
18142;SDS011;9197;50.930;3.140;2023-01-10T09:20:24;13.10;;;4.80;;
18142;SDS011;9197;50.930;3.140;2023-01-10T09:22:51;18.07;;;6.07;;
18142;SDS011;9197;50.930;3.140;2023-01-10T09:25:19;13.07;;;4.83;;
18142;SDS011;9197;50.930;3.140;2023-01-10T09:27:46;13.80;;;4.53;;
18142;SDS011;9197;50.930;3.140;2023-01-10T09:30:14;16.80;;;4.80;;
18142;SDS011;9197;50.930;3.140;2023-01-10T09:32:42;17.87;;;5.40;;
18142;SDS011;9197;50.930;3.140;2023-01-10T09:35:09;15.20;;;5.00;;
18142;SDS011;9197;50.930;3.140;2023-01-10T09:37:38;20.70;;;5.20;;
18142;SDS011;9197;50.930;3.140;2023-01-10T09:40:06;19.43;;;5.03;;
18142;SDS011;9197;50.930;3.140;2023-01-10T09:42:39;15.27;;;5.10;;
18142;SDS011;9197;50.930;3.140;2023-01-10T09:45:14;16.77;;;4.97;;
18142;SDS011;9197;50.930;3.140;2023-01-10T09:47:44;15.00;;;5.50;;
18142;SDS011;9197;50.930;3.140;2023-01-10T09:50:15;18.83;;;4.47;;
18142;SDS011;9197;50.930;3.140;2023-01-10T09:52:46;18.67;;;5.30;;
18142;SDS011;9197;50.930;3.140;2023-01-10T09:55:16;17.50;;;4.13;;
18142;SDS011;9197;50.930;3.140;2023-01-10T09:57:45;16.80;;;5.33;;
18142;SDS011;9197;50.930;3.140;2023-01-10T10:00:14;13.97;;;3.83;;
18142;SDS011;9197;50.930;3.140;2023-01-10T10:02:44;18.30;;;5.30;;
18142;SDS011;9197;50.930;3.140;2023-01-10T10:05:16;13.80;;;5.17;;
18142;SDS011;9197;50.930;3.140;2023-01-10T10:07:45;16.50;;;4.27;;
18142;SDS011;9197;50.930;3.140;2023-01-10T10:10:17;14.87;;;4.83;;
18142;SDS011;9197;50.930;3.140;2023-01-10T10:12:47;19.50;;;4.50;;
18142;SDS011;9197;50.930;3.140;2023-01-10T10:15:20;20.43;;;5.57;;
18142;SDS011;9197;50.930;3.140;2023-01-10T10:17:51;17.13;;;4.30;;
18142;SDS011;9197;50.930;3.140;2023-01-10T10:23:16;16.63;;;5.10;;
18142;SDS011;9197;50.930;3.140;2023-01-10T10:25:50;20.00;;;4.53;;
18142;SDS011;9197;50.930;3.140;2023-01-10T10:28:34;19.73;;;4.33;;
18142;SDS011;9197;50.930;3.140;2023-01-10T10:31:08;9.60;;;3.13;;
18142;SDS011;9197;50.930;3.140;2023-01-10T10:33:42;15.53;;;5.87;;
18142;SDS011;9197;50.930;3.140;2023-01-10T10:36:14;16.40;;;4.10;;
18142;SDS011;9197;50.930;3.140;2023-01-10T10:38:45;15.47;;;5.53;;
18142;SDS011;9197;50.930;3.140;2023-01-10T10:41:14;19.13;;;4.77;;
18142;SDS011;9197;50.930;3.140;2023-01-10T10:43:42;16.20;;;4.63;;
18142;SDS011;9197;50.930;3.140;2023-01-10T10:46:12;14.43;;;4.40;;
18142;SDS011;9197;50.930;3.140;2023-01-10T10:48:44;20.70;;;3.77;;
18142;SDS011;9197;50.930;3.140;2023-01-10T10:51:15;13.90;;;3.97;;
18142;SDS011;9197;50.930;3.140;2023-01-10T10:53:46;15.10;;;4.27;;
18142;SDS011;9197;50.930;3.140;2023-01-10T10:56:16;12.20;;;3.13;;
18142;SDS011;9197;50.930;3.140;2023-01-10T10:58:47;13.50;;;3.67;;
18142;SDS011;9197;50.930;3.140;2023-01-10T11:01:15;15.50;;;4.23;;
18142;SDS011;9197;50.930;3.140;2023-01-10T11:03:43;16.00;;;4.67;;
18142;SDS011;9197;50.930;3.140;2023-01-10T11:06:13;13.77;;;4.03;;
18142;SDS011;9197;50.930;3.140;2023-01-10T11:08:42;16.97;;;4.90;;
18142;SDS011;9197;50.930;3.140;2023-01-10T11:11:14;14.73;;;5.93;;
18142;SDS011;9197;50.930;3.140;2023-01-10T11:13:45;11.73;;;3.70;;
18142;SDS011;9197;50.930;3.140;2023-01-10T11:16:23;18.57;;;5.07;;
18142;SDS011;9197;50.930;3.140;2023-01-10T11:19:12;13.60;;;3.80;;
18142;SDS011;9197;50.930;3.140;2023-01-10T11:21:40;14.33;;;4.90;;
18142;SDS011;9197;50.930;3.140;2023-01-10T11:24:19;16.23;;;4.50;;
18142;SDS011;9197;50.930;3.140;2023-01-10T11:26:49;13.33;;;3.37;;
18142;SDS011;9197;50.930;3.140;2023-01-10T11:29:17;9.27;;;4.90;;
18142;SDS011;9197;50.930;3.140;2023-01-10T11:31:45;15.80;;;4.30;;
18142;SDS011;9197;50.930;3.140;2023-01-10T11:34:19;12.27;;;4.33;;
18142;SDS011;9197;50.930;3.140;2023-01-10T11:36:54;16.73;;;4.20;;
18142;SDS011;9197;50.930;3.140;2023-01-10T11:39:22;20.43;;;5.57;;
18142;SDS011;9197;50.930;3.140;2023-01-10T11:41:51;13.43;;;4.07;;
18142;SDS011;9197;50.930;3.140;2023-01-10T11:44:21;19.97;;;5.60;;
18142;SDS011;9197;50.930;3.140;2023-01-10T11:46:49;17.87;;;5.20;;
18142;SDS011;9197;50.930;3.140;2023-01-10T11:49:19;10.70;;;3.47;;
18142;SDS011;9197;50.930;3.140;2023-01-10T11:51:50;27.40;;;4.30;;
18142;SDS011;9197;50.930;3.140;2023-01-10T11:54:19;13.87;;;6.77;;
18142;SDS011;9197;50.930;3.140;2023-01-10T11:56:51;19.10;;;3.73;;
18142;SDS011;9197;50.930;3.140;2023-01-10T11:59:21;12.23;;;3.90;;
18142;SDS011;9197;50.930;3.140;2023-01-10T12:01:52;12.23;;;3.53;;
18142;SDS011;9197;50.930;3.140;2023-01-10T12:04:20;14.53;;;3.63;;
18142;SDS011;9197;50.930;3.140;2023-01-10T12:06:49;10.87;;;3.90;;
18142;SDS011;9197;50.930;3.140;2023-01-10T12:09:31;13.57;;;3.57;;
18142;SDS011;9197;50.930;3.140;2023-01-10T12:12:00;15.60;;;3.33;;
18142;SDS011;9197;50.930;3.140;2023-01-10T12:14:29;18.50;;;4.90;;
18142;SDS011;9197;50.930;3.140;2023-01-10T12:16:59;12.67;;;3.40;;
18142;SDS011;9197;50.930;3.140;2023-01-10T12:19:27;12.17;;;3.53;;
18142;SDS011;9197;50.930;3.140;2023-01-10T12:21:54;7.97;;;3.20;;
18142;SDS011;9197;50.930;3.140;2023-01-10T12:24:26;11.47;;;3.13;;
18142;SDS011;9197;50.930;3.140;2023-01-10T12:26:54;8.73;;;2.80;;
18142;SDS011;9197;50.930;3.140;2023-01-10T12:29:23;21.23;;;3.47;;
18142;SDS011;9197;50.930;3.140;2023-01-10T12:31:53;9.37;;;2.73;;
18142;SDS011;9197;50.930;3.140;2023-01-10T12:34:22;7.03;;;2.80;;
18142;SDS011;9197;50.930;3.140;2023-01-10T12:36:54;13.17;;;3.67;;
18142;SDS011;9197;50.930;3.140;2023-01-10T12:39:25;16.27;;;3.77;;
18142;SDS011;9197;50.930;3.140;2023-01-10T12:42:02;16.53;;;4.30;;
18142;SDS011;9197;50.930;3.140;2023-01-10T12:44:56;11.93;;;3.53;;
18142;SDS011;9197;50.930;3.140;2023-01-10T12:47:29;14.33;;;4.37;;
18142;SDS011;9197;50.930;3.140;2023-01-10T12:49:59;11.53;;;4.33;;
18142;SDS011;9197;50.930;3.140;2023-01-10T12:52:31;6.93;;;3.10;;
18142;SDS011;9197;50.930;3.140;2023-01-10T12:54:58;13.40;;;4.47;;
18142;SDS011;9197;50.930;3.140;2023-01-10T12:57:28;8.97;;;3.53;;
18142;SDS011;9197;50.930;3.140;2023-01-10T12:59:57;10.90;;;3.43;;
18142;SDS011;9197;50.930;3.140;2023-01-10T13:02:25;11.27;;;3.83;;
18142;SDS011;9197;50.930;3.140;2023-01-10T13:04:57;9.13;;;3.53;;
18142;SDS011;9197;50.930;3.140;2023-01-10T13:07:26;7.67;;;3.27;;
18142;SDS011;9197;50.930;3.140;2023-01-10T13:09:56;7.37;;;3.13;;
18142;SDS011;9197;50.930;3.140;2023-01-10T13:12:25;5.30;;;3.23;;
18142;SDS011;9197;50.930;3.140;2023-01-10T13:15:00;8.93;;;3.90;;
18142;SDS011;9197;50.930;3.140;2023-01-10T13:17:32;9.07;;;4.00;;
18142;SDS011;9197;50.930;3.140;2023-01-10T13:22:48;6.30;;;3.17;;
18142;SDS011;9197;50.930;3.140;2023-01-10T13:25:17;10.53;;;4.07;;
18142;SDS011;9197;50.930;3.140;2023-01-10T13:27:46;14.40;;;5.50;;
18142;SDS011;9197;50.930;3.140;2023-01-10T13:30:23;6.17;;;3.97;;
18142;SDS011;9197;50.930;3.140;2023-01-10T13:32:53;5.97;;;3.53;;
18142;SDS011;9197;50.930;3.140;2023-01-10T13:35:23;6.50;;;3.33;;
18142;SDS011;9197;50.930;3.140;2023-01-10T13:37:54;6.67;;;3.47;;
18142;SDS011;9197;50.930;3.140;2023-01-10T13:40:23;5.07;;;3.70;;
18142;SDS011;9197;50.930;3.140;2023-01-10T13:45:45;8.20;;;4.17;;
18142;SDS011;9197;50.930;3.140;2023-01-10T13:48:23;11.97;;;3.73;;
18142;SDS011;9197;50.930;3.140;2023-01-10T13:51:05;4.23;;;3.30;;
18142;SDS011;9197;50.930;3.140;2023-01-10T13:56:31;6.90;;;4.67;;
18142;SDS011;9197;50.930;3.140;2023-01-10T13:58:58;7.27;;;3.63;;
18142;SDS011;9197;50.930;3.140;2023-01-10T14:01:48;5.93;;;4.50;;
18142;SDS011;9197;50.930;3.140;2023-01-10T14:04:34;7.90;;;4.30;;
18142;SDS011;9197;50.930;3.140;2023-01-10T14:07:03;9.80;;;5.47;;
18142;SDS011;9197;50.930;3.140;2023-01-10T14:09:39;9.10;;;4.97;;
18142;SDS011;9197;50.930;3.140;2023-01-10T14:12:16;6.37;;;4.97;;
18142;SDS011;9197;50.930;3.140;2023-01-10T14:14:49;8.10;;;4.83;;
18142;SDS011;9197;50.930;3.140;2023-01-10T14:17:20;4.53;;;4.07;;
18142;SDS011;9197;50.930;3.140;2023-01-10T14:19:48;5.57;;;3.80;;
18142;SDS011;9197;50.930;3.140;2023-01-10T14:22:25;6.10;;;4.23;;
18142;SDS011;9197;50.930;3.140;2023-01-10T14:24:55;6.47;;;5.47;;
18142;SDS011;9197;50.930;3.140;2023-01-10T14:27:24;6.40;;;4.87;;
18142;SDS011;9197;50.930;3.140;2023-01-10T14:29:54;7.10;;;5.37;;
18142;SDS011;9197;50.930;3.140;2023-01-10T14:32:26;9.07;;;4.83;;
18142;SDS011;9197;50.930;3.140;2023-01-10T14:34:56;6.90;;;5.00;;
18142;SDS011;9197;50.930;3.140;2023-01-10T14:37:26;5.50;;;4.63;;
18142;SDS011;9197;50.930;3.140;2023-01-10T14:39:56;5.60;;;5.03;;
18142;SDS011;9197;50.930;3.140;2023-01-10T14:42:25;8.07;;;5.33;;
18142;SDS011;9197;50.930;3.140;2023-01-10T14:44:57;8.80;;;5.70;;
18142;SDS011;9197;50.930;3.140;2023-01-10T14:47:26;6.97;;;6.27;;
18142;SDS011;9197;50.930;3.140;2023-01-10T14:49:54;8.93;;;5.87;;
18142;SDS011;9197;50.930;3.140;2023-01-10T14:52:23;9.47;;;7.00;;
18142;SDS011;9197;50.930;3.140;2023-01-10T14:54:54;10.30;;;8.97;;
18142;SDS011;9197;50.930;3.140;2023-01-10T14:57:29;11.20;;;10.07;;
18142;SDS011;9197;50.930;3.140;2023-01-10T15:00:00;9.57;;;7.43;;
18142;SDS011;9197;50.930;3.140;2023-01-10T15:02:29;10.70;;;7.63;;
18142;SDS011;9197;50.930;3.140;2023-01-10T15:04:57;9.23;;;8.23;;
18142;SDS011;9197;50.930;3.140;2023-01-10T15:07:26;11.30;;;10.30;;
18142;SDS011;9197;50.930;3.140;2023-01-10T15:09:54;10.27;;;9.37;;
18142;SDS011;9197;50.930;3.140;2023-01-10T15:12:22;11.30;;;10.30;;
18142;SDS011;9197;50.930;3.140;2023-01-10T15:14:54;12.83;;;11.13;;
18142;SDS011;9197;50.930;3.140;2023-01-10T15:17:24;12.30;;;10.13;;
18142;SDS011;9197;50.930;3.140;2023-01-10T15:19:51;12.47;;;10.93;;
18142;SDS011;9197;50.930;3.140;2023-01-10T15:22:23;10.97;;;9.80;;
18142;SDS011;9197;50.930;3.140;2023-01-10T15:24:56;16.83;;;15.27;;